Terminal Aerodrome Forecast
Issued by NWS Birmingham, AL

Home | Current Version | Previous Version | Text Only | Print | Product List | Glossary On
Versions: 1 2 3 4 5 6 7 8 9 10 11 12 13 14 15
333
FTUS44 KBMX 251720
TAFBHM
TAF
KBHM 251720Z 2518/2618 32015G20KT P6SM SKC
     FM260000 33005KT P6SM SKC
     FM261200 06005KT P6SM SKC=

USA.gov is the U.S. government's official web portal to all federal, state and local government web resources and services.